Sainte-Anne-De-Beaupre, Canada
Current Conditions -  °F | °C
As of 2:08 PM on Friday 24 Oct 2014 (Local Time) from CYQB Reporting Station
Broken Clouds Broken Clouds  
Wind Chill:   Ceiling: 10000
Heat Index:   Visibility: 30mi
Dew Point:   Wind: 5mph
Humidity: 57%   Direction: 90°E
Pressure: 29.82"   Gusts: NA
Location:  47.02°N, 70.93°W
Report Text: CYQB 241808Z 09004KT 30SM FEW080 BKN100 09/01 A2982 RMK AC2AC5 SLP101
Loading
Personal Weather Stations






























Interactive Weather Map
Tropical Storm Tracking
New forecast layout! Learn more

10-Day Weather Forecast

Advertisements
Track Severe Weather on mobile